Time;durP1;ratioP1;P1;durP2;ratioP2;P2;SDS_P1;SDS_P2;PMS_P1;PMS_P2;Temp;Humidity;BMP_temperature;BMP_pressure;BME280_temperature;BME280_humidity;BME280_pressure;Samples;Min_cycle;Max_cycle;Signal;HPM_P1;HPM_P2
2023/06/24 00:00:11;;;;;;;3.43;3.13;;;15.20;99.90;;;;;;5117600;28;20437;-93
2023/06/24 00:02:41;;;;;;;3.63;3.00;;;15.20;99.90;;;;;;5117126;28;20466;-92
2023/06/24 00:05:08;;;;;;;3.23;2.93;;;15.20;99.90;;;;;;5115898;28;20473;-93
2023/06/24 00:07:43;;;;;;;3.43;3.13;;;15.10;99.90;;;;;;5117008;28;20449;-94
2023/06/24 00:10:11;;;;;;;4.40;3.70;;;15.10;99.90;;;;;;5116526;28;20483;-94
2023/06/24 00:12:39;;;;;;;4.70;3.50;;;15.00;99.90;;;;;;5116492;28;20513;-94
2023/06/24 00:15:07;;;;;;;3.37;3.07;;;15.00;99.90;;;;;;5114798;28;20446;-93
2023/06/24 00:17:34;;;;;;;3.40;3.10;;;14.90;99.90;;;;;;5116673;28;20462;-94
2023/06/24 00:20:01;;;;;;;3.67;3.13;;;14.90;99.90;;;;;;5115760;28;20504;-92
2023/06/24 00:22:27;;;;;;;4.70;3.67;;;14.90;99.90;;;;;;5115932;28;20488;-94
2023/06/24 00:24:56;;;;;;;4.10;3.70;;;14.90;99.90;;;;;;5115279;28;20473;-91
2023/06/24 00:27:23;;;;;;;4.10;3.20;;;14.90;99.90;;;;;;5116099;28;20454;-93
2023/06/24 00:29:50;;;;;;;3.67;3.37;;;14.80;99.90;;;;;;5116900;28;20533;-94
2023/06/24 00:32:16;;;;;;;3.67;3.33;;;14.80;99.90;;;;;;5116065;28;20456;-93
2023/06/24 00:34:43;;;;;;;3.90;3.23;;;14.80;99.90;;;;;;5115935;28;20580;-92
2023/06/24 00:37:10;;;;;;;5.47;3.60;;;14.80;99.90;;;;;;5116461;28;20513;-94
2023/06/24 00:39:37;;;;;;;4.13;3.33;;;14.70;99.90;;;;;;5116364;28;20464;-94
2023/06/24 00:42:06;;;;;;;3.67;3.27;;;14.70;99.90;;;;;;5115629;28;20470;-92
2023/06/24 00:44:33;;;;;;;4.37;3.90;;;14.70;99.90;;;;;;5115754;28;20473;-93
2023/06/24 00:47:00;;;;;;;5.73;3.47;;;14.70;99.90;;;;;;5115552;28;20470;-93
2023/06/24 00:49:26;;;;;;;4.23;3.03;;;14.60;99.90;;;;;;5116481;28;20529;-93
2023/06/24 00:51:55;;;;;;;4.50;3.47;;;14.60;99.90;;;;;;5117419;28;20464;-93
2023/06/24 00:54:30;;;;;;;4.13;3.40;;;14.60;99.90;;;;;;5116350;28;20503;-93
2023/06/24 00:57:00;;;;;;;5.67;4.33;;;14.60;99.90;;;;;;5115654;28;20487;-94
2023/06/24 00:59:31;;;;;;;4.10;3.13;;;14.60;99.90;;;;;;5114956;28;20484;-92
2023/06/24 01:02:01;;;;;;;4.37;3.97;;;14.50;99.90;;;;;;5115610;28;20461;-94
2023/06/24 01:04:28;;;;;;;4.27;3.70;;;14.50;99.90;;;;;;5115618;28;20521;-93
2023/06/24 01:06:57;;;;;;;3.83;3.43;;;14.50;99.90;;;;;;5116490;28;20450;-93
2023/06/24 01:09:25;;;;;;;4.70;3.40;;;14.40;99.90;;;;;;5113415;28;20472;-94
2023/06/24 01:11:51;;;;;;;4.73;3.37;;;14.40;99.90;;;;;;5113737;28;20449;-93
2023/06/24 01:14:19;;;;;;;4.93;3.57;;;14.40;99.90;;;;;;5114228;28;20517;-92
2023/06/24 01:16:56;;;;;;;3.57;3.27;;;14.40;99.90;;;;;;5113807;28;20457;-93
2023/06/24 01:19:51;;;;;;;4.37;3.97;;;14.30;99.90;;;;;;5113653;28;20454;-93
2023/06/24 01:22:33;;;;;;;4.57;3.77;;;14.30;99.90;;;;;;5114291;28;20456;-93
2023/06/24 01:25:14;;;;;;;4.17;3.17;;;14.30;99.90;;;;;;5114401;28;20470;-93
2023/06/24 01:28:03;;;;;;;4.60;3.80;;;14.20;99.90;;;;;;5111131;28;20461;-93
2023/06/24 01:30:49;;;;;;;4.80;3.77;;;14.20;99.90;;;;;;5067845;28;20915;-92
2023/06/24 01:33:25;;;;;;;4.10;3.37;;;14.20;99.90;;;;;;5111327;28;20485;-92
2023/06/24 01:35:53;;;;;;;4.93;3.80;;;14.20;99.90;;;;;;5111451;28;20504;-92
2023/06/24 01:38:24;;;;;;;3.67;3.37;;;14.10;99.90;;;;;;5111123;28;20480;-91
2023/06/24 01:40:52;;;;;;;4.67;3.80;;;14.20;99.90;;;;;;5111633;28;20450;-93
2023/06/24 01:43:22;;;;;;;4.90;3.73;;;14.10;99.90;;;;;;5111642;28;20568;-93
2023/06/24 01:45:51;;;;;;;4.10;3.70;;;14.10;99.90;;;;;;5111667;28;20484;-92
2023/06/24 01:48:25;;;;;;;4.07;3.67;;;14.00;99.90;;;;;;5113360;28;20437;-93
2023/06/24 01:50:58;;;;;;;4.13;3.67;;;14.00;99.90;;;;;;5118587;28;20452;-94
2023/06/24 01:53:27;;;;;;;4.13;3.57;;;14.00;99.90;;;;;;5118328;28;20508;-92
2023/06/24 01:55:55;;;;;;;3.80;3.40;;;14.00;99.90;;;;;;5118348;28;20629;-93
2023/06/24 01:58:24;;;;;;;3.60;3.30;;;13.90;99.90;;;;;;5118448;28;20441;-93
2023/06/24 02:00:52;;;;;;;3.70;3.03;;;13.90;99.90;;;;;;5116894;28;20458;-92
2023/06/24 02:03:22;;;;;;;5.17;3.27;;;13.90;99.90;;;;;;5114579;28;20450;-92
2023/06/24 02:05:50;;;;;;;4.07;3.67;;;13.90;99.90;;;;;;5117636;28;20454;-93
2023/06/24 02:08:19;;;;;;;3.50;3.20;;;13.90;99.90;;;;;;5118111;28;20434;-92
2023/06/24 02:10:47;;;;;;;4.40;3.57;;;13.90;99.90;;;;;;5118444;28;20452;-94
2023/06/24 02:13:14;;;;;;;3.67;3.33;;;13.90;99.90;;;;;;5118088;28;20454;-93
2023/06/24 02:15:43;;;;;;;4.03;3.33;;;13.80;99.90;;;;;;5117974;28;20536;-93
2023/06/24 02:18:11;;;;;;;4.00;3.60;;;13.80;99.90;;;;;;5118170;28;20430;-92
2023/06/24 02:20:42;;;;;;;4.47;3.93;;;13.80;99.90;;;;;;5118207;28;20440;-95
2023/06/24 02:23:10;;;;;;;4.13;3.70;;;13.80;99.90;;;;;;5117720;28;20508;-94
2023/06/24 02:25:38;;;;;;;4.40;3.80;;;13.80;99.90;;;;;;5117449;28;20456;-93
2023/06/24 02:28:06;;;;;;;4.53;4.13;;;13.80;99.90;;;;;;5117433;28;20481;-93
2023/06/24 02:30:35;;;;;;;4.23;3.67;;;13.80;99.90;;;;;;5117065;28;20505;-94
2023/06/24 02:33:02;;;;;;;4.17;3.60;;;13.70;99.90;;;;;;5117056;28;20429;-94
2023/06/24 02:35:29;;;;;;;4.90;4.40;;;13.70;99.90;;;;;;5111458;28;20472;-92
2023/06/24 02:37:57;;;;;;;4.20;3.80;;;13.70;99.90;;;;;;5110249;28;20445;-93
2023/06/24 02:40:23;;;;;;;4.63;4.03;;;13.70;99.90;;;;;;5111469;28;20453;-92
2023/06/24 02:42:50;;;;;;;4.03;3.67;;;13.70;99.90;;;;;;5111664;28;20464;-93
2023/06/24 02:45:17;;;;;;;5.43;3.57;;;13.60;99.90;;;;;;5114287;28;20549;-93
2023/06/24 02:47:47;;;;;;;3.90;3.50;;;13.60;99.90;;;;;;5118585;28;20445;-93
2023/06/24 02:50:14;;;;;;;4.30;3.60;;;13.60;99.90;;;;;;5120894;28;20496;-94
2023/06/24 02:52:41;;;;;;;5.27;3.57;;;13.60;99.90;;;;;;5120825;28;20529;-93
2023/06/24 02:55:11;;;;;;;3.80;3.40;;;13.60;99.90;;;;;;5120696;28;20521;-91
2023/06/24 02:57:38;;;;;;;4.93;4.17;;;13.60;99.90;;;;;;5121280;28;20430;-93
2023/06/24 03:00:08;;;;;;;5.63;3.90;;;13.50;99.90;;;;;;5121075;28;20517;-92
2023/06/24 03:02:36;;;;;;;5.60;4.10;;;13.50;99.90;;;;;;5120917;28;20473;-94
2023/06/24 03:05:04;;;;;;;8.13;4.13;;;13.50;99.90;;;;;;5120343;28;20545;-92
2023/06/24 03:07:34;;;;;;;3.80;3.47;;;13.50;99.90;;;;;;5120900;28;20465;-93
2023/06/24 03:10:02;;;;;;;4.17;3.23;;;13.50;99.90;;;;;;5120468;28;20442;-92
2023/06/24 03:12:30;;;;;;;4.60;3.73;;;13.40;99.90;;;;;;5117459;28;20453;-93
2023/06/24 03:14:57;;;;;;;5.60;3.50;;;13.50;99.90;;;;;;5113535;28;20462;-90
2023/06/24 03:17:24;;;;;;;4.67;3.47;;;13.50;99.90;;;;;;5112036;28;20458;-92
2023/06/24 03:19:51;;;;;;;4.97;3.93;;;13.50;99.90;;;;;;5109070;28;20522;-92
2023/06/24 03:22:18;;;;;;;4.13;3.83;;;13.60;99.90;;;;;;5108328;28;20464;-92
2023/06/24 03:24:45;;;;;;;5.00;4.00;;;13.60;99.90;;;;;;5107530;28;20499;-92
2023/06/24 03:27:12;;;;;;;4.80;3.70;;;13.70;99.90;;;;;;5108088;28;20523;-94
2023/06/24 03:29:40;;;;;;;3.60;3.30;;;13.70;99.90;;;;;;5107856;28;20462;-93
2023/06/24 03:32:08;;;;;;;3.67;3.27;;;13.70;99.90;;;;;;5108297;28;20466;-94
2023/06/24 03:34:35;;;;;;;5.13;4.63;;;13.80;99.90;;;;;;5108821;28;20474;-93
2023/06/24 03:37:04;;;;;;;4.23;3.73;;;13.80;99.90;;;;;;5112136;28;20485;-93
2023/06/24 03:39:30;;;;;;;4.57;3.57;;;13.80;99.90;;;;;;5110986;28;20460;-92
2023/06/24 03:41:57;;;;;;;4.83;3.57;;;13.90;99.90;;;;;;5108927;28;21118;-93
2023/06/24 03:44:24;;;;;;;4.80;4.37;;;13.90;99.90;;;;;;5107400;28;20497;-91
2023/06/24 03:46:52;;;;;;;3.70;3.40;;;14.00;99.90;;;;;;5090999;22;20543;-95
2023/06/24 03:49:19;;;;;;;4.30;3.50;;;14.10;99.90;;;;;;5069936;28;20444;-95
2023/06/24 03:51:46;;;;;;;4.67;4.20;;;14.10;99.90;;;;;;5066879;28;20437;-95
2023/06/24 03:54:13;;;;;;;4.57;3.97;;;14.10;99.90;;;;;;5074138;28;20530;-95
2023/06/24 03:56:40;;;;;;;4.03;3.13;;;14.10;99.90;;;;;;5058793;28;20472;-94
2023/06/24 03:59:07;;;;;;;3.73;3.40;;;14.20;99.90;;;;;;5066822;28;20517;-96
2023/06/24 04:01:36;;;;;;;4.27;3.87;;;14.20;99.90;;;;;;5074960;28;20447;-94
2023/06/24 04:04:04;;;;;;;3.80;3.40;;;14.20;99.90;;;;;;5066512;28;20441;-95
2023/06/24 04:06:31;;;;;;;4.93;4.03;;;14.20;99.90;;;;;;5066208;28;20480;-95
2023/06/24 04:08:58;;;;;;;4.53;3.90;;;14.30;99.90;;;;;;5071995;28;20470;-95
2023/06/24 04:11:25;;;;;;;3.97;3.57;;;14.30;99.90;;;;;;5068813;28;20483;-95
2023/06/24 04:13:52;;;;;;;4.93;3.80;;;14.40;99.90;;;;;;5066256;28;20534;-95
2023/06/24 04:16:19;;;;;;;5.20;3.90;;;14.40;99.90;;;;;;5074340;28;20494;-94
2023/06/24 04:18:46;;;;;;;4.00;3.60;;;14.40;99.90;;;;;;5069618;28;20511;-94
2023/06/24 04:21:15;;;;;;;4.87;3.57;;;14.50;99.90;;;;;;5069566;28;20511;-96
2023/06/24 04:23:42;;;;;;;3.90;3.60;;;14.50;99.90;;;;;;5069779;28;20443;-95
2023/06/24 04:26:09;;;;;;;4.30;3.90;;;14.50;99.90;;;;;;5069093;28;20460;-95
2023/06/24 04:28:36;;;;;;;4.17;3.80;;;14.50;99.90;;;;;;5069496;28;20442;-95
2023/06/24 04:31:04;;;;;;;3.80;3.40;;;14.60;99.90;;;;;;5077391;28;20503;-94
2023/06/24 04:36:18;;;;;;;5.20;3.93;;;14.70;99.90;;;;;;5076339;28;20459;-94
2023/06/24 04:38:44;;;;;;;4.97;3.87;;;14.80;99.90;;;;;;5076922;28;20838;-95
2023/06/24 04:41:11;;;;;;;4.83;4.33;;;14.90;99.90;;;;;;5077439;28;20459;-95
2023/06/24 04:43:38;;;;;;;4.73;4.13;;;15.00;99.90;;;;;;5077711;28;20435;-96
2023/06/24 04:46:05;;;;;;;5.93;3.90;;;15.00;99.90;;;;;;5074347;28;20559;-95
2023/06/24 04:48:32;;;;;;;4.30;3.40;;;15.10;99.90;;;;;;5062513;28;20443;-95
2023/06/24 04:50:59;;;;;;;4.73;3.50;;;15.10;99.90;;;;;;5057202;28;20476;-95
2023/06/24 04:53:27;;;;;;;4.10;3.50;;;15.20;99.90;;;;;;5057617;28;20520;-95
2023/06/24 04:55:56;;;;;;;4.80;4.20;;;15.20;99.90;;;;;;5057204;28;20483;-96
2023/06/24 04:58:23;;;;;;;4.17;3.70;;;15.30;99.90;;;;;;5057160;28;20451;-95
2023/06/24 05:00:50;;;;;;;6.30;4.13;;;15.30;99.90;;;;;;5056388;28;20467;-95
2023/06/24 05:03:20;;;;;;;4.30;3.90;;;15.30;99.90;;;;;;5057273;28;20438;-95
2023/06/24 05:05:47;;;;;;;5.03;4.00;;;15.40;99.90;;;;;;5057222;28;20511;-95
2023/06/24 05:08:17;;;;;;;4.10;3.70;;;15.40;99.90;;;;;;5057380;28;20440;-94
2023/06/24 05:10:45;;;;;;;4.43;3.70;;;15.40;99.90;;;;;;5057448;28;20438;-95
2023/06/24 05:13:12;;;;;;;4.00;3.60;;;15.50;99.90;;;;;;5057236;28;20444;-95
2023/06/24 05:15:39;;;;;;;4.97;4.00;;;15.50;99.90;;;;;;5057015;28;20552;-94
2023/06/24 05:18:06;;;;;;;4.17;3.77;;;15.60;99.90;;;;;;5057199;28;20459;-96
2023/06/24 05:20:33;;;;;;;6.17;4.20;;;15.70;99.90;;;;;;5057111;28;20532;-95
2023/06/24 05:23:00;;;;;;;4.93;4.53;;;15.70;99.90;;;;;;5056614;28;20508;-95
2023/06/24 05:25:27;;;;;;;5.83;4.53;;;15.80;99.90;;;;;;5056208;28;20464;-96
2023/06/24 05:27:56;;;;;;;3.20;2.97;;;15.80;99.90;;;;;;5068122;28;20451;-95
2023/06/24 05:30:23;;;;;;;4.30;3.90;;;15.90;99.90;;;;;;5077232;28;20520;-95
2023/06/24 05:32:50;;;;;;;5.77;4.40;;;15.90;99.90;;;;;;5066559;28;20448;-95
2023/06/24 05:35:41;;;;;;;4.20;3.80;;;16.00;99.90;;;;;;5056640;28;20492;-95
2023/06/24 05:38:08;;;;;;;4.40;3.80;;;16.10;99.90;;;;;;5069705;28;20448;-96
2023/06/24 05:40:35;;;;;;;4.50;4.10;;;16.20;99.90;;;;;;5077082;28;20451;-95
2023/06/24 05:43:04;;;;;;;4.27;3.80;;;16.30;99.90;;;;;;5076593;28;20444;-96
2023/06/24 05:45:31;;;;;;;5.27;4.20;;;16.30;99.90;;;;;;5076681;28;20505;-95
2023/06/24 05:47:58;;;;;;;4.43;3.77;;;16.40;99.90;;;;;;5076673;28;20507;-95
2023/06/24 05:50:25;;;;;;;5.27;4.10;;;16.50;99.90;;;;;;5076846;28;20464;-95
2023/06/24 05:52:52;;;;;;;5.30;3.60;;;16.50;99.90;;;;;;5076650;28;20470;-96
2023/06/24 05:55:19;;;;;;;5.10;3.80;;;16.60;99.90;;;;;;5076669;28;20482;-95
2023/06/24 05:57:51;;;;;;;4.30;3.37;;;16.70;99.90;;;;;;5076486;28;20468;-96
2023/06/24 06:00:20;;;;;;;4.10;3.63;;;16.80;99.90;;;;;;5076990;28;20474;-95
2023/06/24 06:02:47;;;;;;;3.83;3.33;;;16.90;99.90;;;;;;5076641;28;20507;-95
2023/06/24 06:05:14;;;;;;;4.00;3.60;;;16.90;99.90;;;;;;5076870;28;20467;-96
2023/06/24 06:10:22;;;;;;;4.40;3.87;;;17.20;99.90;;;;;;5028090;28;20496;-72
2023/06/24 06:12:48;;;;;;;4.33;3.47;;;17.30;99.90;;;;;;5031049;28;20457;-72
2023/06/24 06:15:15;;;;;;;3.93;3.47;;;17.40;99.90;;;;;;5033486;28;20491;-71
2023/06/24 06:17:43;;;;;;;4.50;3.90;;;17.50;99.90;;;;;;5033679;28;20515;-71
2023/06/24 06:20:11;;;;;;;3.20;2.90;;;17.50;99.90;;;;;;5033680;28;20457;-72
2023/06/24 06:22:38;;;;;;;3.30;3.00;;;17.60;99.90;;;;;;5033706;28;20460;-71
2023/06/24 06:25:06;;;;;;;3.93;3.30;;;17.70;99.90;;;;;;5033318;28;20492;-71
2023/06/24 06:27:33;;;;;;;3.93;3.30;;;17.70;99.90;;;;;;5033877;28;20480;-70
2023/06/24 06:29:59;;;;;;;3.40;2.93;;;17.80;99.90;;;;;;5034097;28;20964;-71
2023/06/24 06:32:26;;;;;;;4.00;3.60;;;17.90;99.90;;;;;;5033802;28;20461;-71
2023/06/24 06:34:54;;;;;;;3.33;3.00;;;18.00;99.90;;;;;;5033334;28;20503;-71
2023/06/24 06:37:21;;;;;;;3.43;2.87;;;18.10;99.90;;;;;;5033378;28;20488;-70
2023/06/24 06:39:47;;;;;;;6.70;3.23;;;18.20;99.90;;;;;;5033037;28;20460;-71
2023/06/24 06:42:14;;;;;;;3.07;2.70;;;18.20;99.90;;;;;;5033027;28;20466;-70
2023/06/24 06:44:41;;;;;;;3.50;3.20;;;18.30;99.90;;;;;;5032897;28;20458;-71
2023/06/24 06:47:08;;;;;;;2.90;2.60;;;18.30;99.90;;;;;;5032814;28;20862;-70
2023/06/24 06:49:35;;;;;;;3.60;2.90;;;18.30;99.90;;;;;;5032946;28;20465;-70
2023/06/24 06:52:03;;;;;;;3.90;3.20;;;18.40;99.90;;;;;;5032970;28;20488;-70
2023/06/24 06:54:30;;;;;;;4.03;3.03;;;18.40;99.90;;;;;;5032772;28;20465;-71
2023/06/24 06:57:01;;;;;;;3.37;2.97;;;18.50;99.90;;;;;;5032528;28;20485;-70
2023/06/24 06:59:28;;;;;;;3.43;3.13;;;18.70;99.90;;;;;;5032991;28;20908;-70
2023/06/24 07:01:55;;;;;;;3.37;3.07;;;18.70;99.90;;;;;;5020623;28;20484;-70
2023/06/24 07:04:21;;;;;;;2.87;2.57;;;18.80;99.90;;;;;;5032716;28;20462;-70
2023/06/24 07:06:48;;;;;;;3.03;2.83;;;19.00;99.90;;;;;;5032402;28;20485;-70
2023/06/24 07:09:16;;;;;;;4.23;2.50;;;19.10;99.90;;;;;;5032406;28;20474;-70
2023/06/24 07:11:43;;;;;;;3.88;2.90;;;19.20;99.90;;;;;;5032142;28;20461;-73
2023/06/24 07:14:10;;;;;;;4.23;2.80;;;19.30;99.90;;;;;;5032564;28;20549;-71
2023/06/24 07:16:37;;;;;;;3.07;2.57;;;19.40;99.90;;;;;;5032175;28;20496;-72
2023/06/24 07:19:03;;;;;;;2.93;2.70;;;19.50;99.90;;;;;;5032503;28;20471;-72
2023/06/24 07:21:30;;;;;;;3.20;2.90;;;19.60;99.90;;;;;;5032432;28;20460;-72
2023/06/24 07:23:57;;;;;;;3.43;3.10;;;19.70;99.90;;;;;;5031528;28;20838;-72
2023/06/24 07:26:28;;;;;;;3.13;2.57;;;19.90;99.90;;;;;;5031595;28;20464;-72
2023/06/24 07:28:57;;;;;;;3.33;3.03;;;19.90;99.90;;;;;;5032476;28;21022;-72
2023/06/24 07:31:23;;;;;;;3.40;3.10;;;20.00;99.90;;;;;;5032235;28;20482;-72
2023/06/24 07:33:50;;;;;;;3.30;2.90;;;20.00;99.90;;;;;;5032656;28;20456;-72
2023/06/24 07:36:17;;;;;;;3.13;2.60;;;20.00;99.90;;;;;;5031727;28;20849;-72
2023/06/24 07:38:43;;;;;;;3.73;2.50;;;20.10;99.90;;;;;;5032545;28;20464;-72
2023/06/24 07:41:10;;;;;;;3.40;3.10;;;20.20;99.90;;;;;;5032471;28;20460;-72
2023/06/24 07:43:38;;;;;;;3.10;2.80;;;20.20;99.90;;;;;;5032062;28;20935;-72
2023/06/24 07:46:05;;;;;;;3.23;2.93;;;20.30;99.90;;;;;;5031719;28;20455;-72
2023/06/24 07:48:32;;;;;;;3.20;2.90;;;20.40;99.90;;;;;;5031803;28;20513;-72
2023/06/24 07:50:59;;;;;;;3.47;3.17;;;20.40;99.90;;;;;;5032183;28;20459;-72
2023/06/24 07:53:26;;;;;;;2.83;2.60;;;20.50;99.90;;;;;;5031562;28;20468;-72
2023/06/24 07:55:52;;;;;;;3.67;3.20;;;20.60;99.90;;;;;;5031571;28;20484;-72
2023/06/24 07:58:20;;;;;;;3.60;3.17;;;20.70;99.90;;;;;;5031644;28;20480;-72
2023/06/24 08:00:48;;;;;;;3.30;3.00;;;20.70;99.90;;;;;;5023959;28;20838;-72
2023/06/24 08:03:15;;;;;;;3.20;2.83;;;20.80;99.90;;;;;;5031538;28;20470;-72
2023/06/24 08:05:41;;;;;;;2.83;2.60;;;20.80;99.90;;;;;;5031198;28;20459;-72
2023/06/24 08:08:09;;;;;;;4.07;3.60;;;20.80;99.90;;;;;;5031357;28;20480;-72
2023/06/24 08:10:36;;;;;;;2.93;2.60;;;20.90;99.90;;;;;;5031484;28;20465;-72
2023/06/24 08:13:02;;;;;;;3.20;2.90;;;20.90;99.90;;;;;;5031645;28;20460;-72
2023/06/24 08:15:29;;;;;;;3.87;3.43;;;21.00;99.90;;;;;;5030841;28;20831;-72
2023/06/24 08:17:57;;;;;;;3.10;2.63;;;21.10;99.90;;;;;;5031411;28;20480;-72
2023/06/24 08:20:24;;;;;;;3.43;3.13;;;21.30;99.90;;;;;;5031041;28;20457;-72
2023/06/24 08:22:51;;;;;;;3.40;3.07;;;21.40;99.90;;;;;;5031079;28;20556;-72
2023/06/24 08:25:18;;;;;;;3.90;2.77;;;21.50;99.90;;;;;;5031034;28;20465;-72
2023/06/24 08:27:46;;;;;;;3.20;2.90;;;21.70;99.90;;;;;;5031537;28;20832;-72
2023/06/24 08:30:14;;;;;;;3.27;2.97;;;21.80;99.90;;;;;;5031379;28;20522;-72
2023/06/24 08:32:41;;;;;;;3.57;3.10;;;21.80;99.90;;;;;;5030977;28;20487;-72
2023/06/24 08:35:10;;;;;;;3.30;3.00;;;21.90;99.90;;;;;;5029989;28;20477;-72
2023/06/24 08:37:37;;;;;;;3.30;2.93;;;22.00;99.90;;;;;;5030969;28;20999;-73
2023/06/24 08:40:05;;;;;;;3.53;3.03;;;22.10;99.90;;;;;;5030795;28;20470;-73
2023/06/24 08:42:32;;;;;;;2.90;2.60;;;22.20;99.90;;;;;;5030837;28;20458;-72
2023/06/24 08:44:58;;;;;;;4.57;3.63;;;22.30;99.90;;;;;;5030431;28;20845;-73
2023/06/24 08:47:28;;;;;;;3.10;2.80;;;22.40;99.90;;;;;;5030552;28;20491;-72
2023/06/24 08:50:03;;;;;;;3.13;2.83;;;22.50;99.90;;;;;;5030754;28;20502;-73
2023/06/24 08:52:35;;;;;;;3.50;3.10;;;22.50;99.90;;;;;;5030888;28;20460;-72
2023/06/24 08:55:02;;;;;;;3.10;2.80;;;22.60;99.90;;;;;;5030140;28;20470;-73
2023/06/24 08:57:29;;;;;;;3.83;3.10;;;22.70;99.90;;;;;;5030581;28;20474;-73
2023/06/24 08:59:56;;;;;;;2.53;2.33;;;22.80;99.90;;;;;;5030696;28;20462;-73
2023/06/24 09:02:23;;;;;;;2.97;2.50;;;23.00;99.90;;;;;;5030534;28;20467;-73
2023/06/24 09:04:51;;;;;;;8.63;3.47;;;23.00;99.90;;;;;;5030241;28;20469;-73
2023/06/24 09:07:26;;;;;;;3.23;2.97;;;23.10;99.90;;;;;;5030805;28;20488;-73
2023/06/24 09:09:54;;;;;;;2.30;2.10;;;23.10;99.90;;;;;;5030589;28;20471;-73
2023/06/24 09:12:21;;;;;;;3.20;2.93;;;23.20;99.90;;;;;;5030486;28;20830;-73
2023/06/24 09:14:50;;;;;;;4.10;3.00;;;23.30;99.90;;;;;;5030522;28;20460;-73
2023/06/24 09:17:17;;;;;;;3.43;3.10;;;23.40;99.90;;;;;;5030443;28;20487;-73
2023/06/24 09:19:44;;;;;;;2.60;2.40;;;23.50;99.90;;;;;;5030258;28;20466;-73
2023/06/24 09:22:16;;;;;;;3.43;2.73;;;23.50;99.90;;;;;;5030604;28;20467;-73
2023/06/24 09:24:44;;;;;;;3.40;2.67;;;23.60;99.90;;;;;;5030116;28;20551;-72
2023/06/24 09:27:13;;;;;;;3.10;2.80;;;23.70;99.90;;;;;;5030127;28;20483;-73
2023/06/24 09:29:41;;;;;;;3.60;2.73;;;23.80;99.90;;;;;;5030313;28;20522;-73
2023/06/24 09:32:08;;;;;;;3.20;2.90;;;23.70;99.90;;;;;;5030014;28;20551;-72
2023/06/24 09:34:35;;;;;;;3.10;2.80;;;23.70;99.90;;;;;;5030070;28;20468;-72
2023/06/24 09:37:02;;;;;;;3.20;2.90;;;23.70;99.90;;;;;;5029722;28;20484;-72
2023/06/24 09:39:35;;;;;;;3.20;2.90;;;23.80;99.90;;;;;;5030024;28;20467;-72
2023/06/24 09:42:03;;;;;;;3.87;3.03;;;23.90;99.90;;;;;;5030119;28;20467;-72
2023/06/24 09:44:31;;;;;;;3.57;3.17;;;23.90;99.90;;;;;;5029648;28;20964;-72
2023/06/24 09:46:58;;;;;;;2.57;2.37;;;24.00;99.90;;;;;;5204052;22;20558;-70
2023/06/24 09:49:25;;;;;;;3.40;3.10;;;24.10;99.90;;;;;;5053988;28;20464;-70
2023/06/24 09:51:55;;;;;;;4.33;2.87;;;24.10;99.90;;;;;;5073924;28;20463;-70
2023/06/24 09:54:24;;;;;;;3.03;2.73;;;24.10;99.90;;;;;;5073884;28;20458;-70
2023/06/24 09:56:52;;;;;;;3.13;2.83;;;24.20;99.80;;;;;;5073792;28;20494;-70
2023/06/24 09:59:21;;;;;;;2.43;2.23;;;24.30;99.00;;;;;;5073940;28;20821;-70
2023/06/24 10:01:52;;;;;;;3.07;2.80;;;24.30;99.90;;;;;;5073848;28;20987;-71
2023/06/24 10:04:21;;;;;;;2.57;2.37;;;24.20;99.70;;;;;;5073802;28;20463;-70
2023/06/24 10:06:49;;;;;;;3.33;2.77;;;24.10;99.90;;;;;;5072670;28;20489;-71
2023/06/24 10:09:17;;;;;;;3.07;2.80;;;24.00;98.50;;;;;;5073581;28;20466;-70
2023/06/24 10:11:45;;;;;;;3.47;2.70;;;24.00;99.90;;;;;;5073214;28;20470;-70
2023/06/24 10:14:12;;;;;;;3.70;2.60;;;24.10;99.90;;;;;;5073361;28;20473;-70
2023/06/24 10:16:39;;;;;;;4.00;2.60;;;24.20;99.90;;;;;;5072408;28;20513;-70
2023/06/24 10:19:07;;;;;;;3.30;2.80;;;24.30;99.90;;;;;;5073520;28;20457;-70
2023/06/24 10:21:48;;;;;;;3.13;2.53;;;24.40;99.90;;;;;;5072939;28;20461;-70
2023/06/24 10:24:28;;;;;;;3.53;2.90;;;24.50;99.90;;;;;;5073270;28;20463;-70
2023/06/24 10:26:55;;;;;;;3.00;2.70;;;24.70;97.70;;;;;;5068765;28;20859;-70
2023/06/24 10:29:31;;;;;;;2.70;2.50;;;24.70;99.90;;;;;;5053108;28;20465;-70
2023/06/24 10:32:03;;;;;;;2.93;2.63;;;24.60;99.60;;;;;;5053549;28;20818;-70
2023/06/24 10:34:45;;;;;;;2.90;2.60;;;24.50;99.90;;;;;;5047937;28;20462;-68
2023/06/24 10:37:19;;;;;;;3.13;2.70;;;24.50;99.30;;;;;;5068467;28;20479;-68
2023/06/24 10:39:51;;;;;;;3.47;2.70;;;24.70;99.90;;;;;;5069318;28;20464;-68
2023/06/24 10:42:38;;;;;;;3.30;2.50;;;24.90;99.90;;;;;;5061400;28;20874;-68
2023/06/24 10:45:16;;;;;;;2.40;2.20;;;25.20;99.80;;;;;;5048417;28;20885;-68
2023/06/24 10:47:44;;;;;;;2.40;2.07;;;25.40;99.50;;;;;;5048376;28;21018;-69
2023/06/24 10:50:14;;;;;;;3.20;2.53;;;25.60;99.90;;;;;;5048773;28;20466;-69
2023/06/24 10:52:42;;;;;;;2.50;2.27;;;25.60;97.00;;;;;;5048666;28;21037;-70
2023/06/24 10:55:10;;;;;;;2.80;2.60;;;25.70;97.30;;;;;;5048188;28;20456;-68
2023/06/24 10:57:36;;;;;;;2.70;2.50;;;25.70;98.00;;;;;;5048054;28;20490;-68
2023/06/24 11:00:05;;;;;;;2.40;2.20;;;25.90;97.70;;;;;;5048278;28;20460;-69
2023/06/24 11:02:32;;;;;;;4.33;2.50;;;26.00;95.90;;;;;;5057603;28;20455;-69
2023/06/24 11:05:00;;;;;;;2.50;2.30;;;26.00;95.30;;;;;;5068328;28;20465;-69
2023/06/24 11:07:30;;;;;;;3.10;2.80;;;26.10;95.90;;;;;;5068381;28;20489;-69
2023/06/24 11:09:59;;;;;;;3.60;2.43;;;26.10;96.10;;;;;;5068760;28;20465;-69
2023/06/24 11:12:27;;;;;;;3.37;2.60;;;26.20;96.80;;;;;;5068243;28;20851;-69
2023/06/24 11:14:57;;;;;;;2.70;2.50;;;26.30;95.40;;;;;;5067999;28;20464;-68
2023/06/24 11:17:24;;;;;;;2.37;2.17;;;26.30;96.00;;;;;;5068024;28;21011;-69
2023/06/24 11:19:52;;;;;;;3.20;2.30;;;26.30;96.60;;;;;;5067596;28;20461;-69
2023/06/24 11:22:19;;;;;;;3.37;2.50;;;26.40;96.70;;;;;;5070705;28;20458;-71
2023/06/24 11:24:47;;;;;;;2.70;2.50;;;26.50;95.90;;;;;;5070922;28;20466;-71
2023/06/24 11:27:14;;;;;;;4.00;2.77;;;26.50;96.10;;;;;;5071621;28;20475;-71
2023/06/24 11:29:41;;;;;;;3.80;2.60;;;26.50;97.90;;;;;;5055892;28;20470;-71
2023/06/24 11:32:09;;;;;;;3.17;2.87;;;26.60;95.70;;;;;;5051902;28;20455;-71
2023/06/24 11:34:36;;;;;;;2.57;2.37;;;26.40;96.90;;;;;;5052054;28;20839;-70
2023/06/24 11:37:11;;;;;;;3.17;2.87;;;26.20;96.80;;;;;;5051442;28;20518;-70
2023/06/24 11:39:37;;;;;;;4.37;3.17;;;26.20;96.00;;;;;;5051944;28;20459;-70
2023/06/24 11:42:08;;;;;;;2.97;2.67;;;26.30;97.00;;;;;;5051740;28;20484;-70
2023/06/24 11:44:34;;;;;;;2.80;2.60;;;26.40;97.80;;;;;;5052262;28;20466;-70
2023/06/24 11:47:05;;;;;;;2.63;2.43;;;26.60;97.70;;;;;;5054119;28;20486;-70
2023/06/24 11:49:32;;;;;;;2.60;2.33;;;26.70;95.50;;;;;;5048829;28;20989;-70
2023/06/24 11:51:59;;;;;;;3.10;2.80;;;26.80;93.90;;;;;;5051321;28;21103;-70
2023/06/24 11:54:25;;;;;;;2.50;2.30;;;26.90;93.20;;;;;;5053748;28;20882;-70
2023/06/24 11:56:53;;;;;;;2.80;2.60;;;26.80;91.20;;;;;;5050410;28;20479;-70
2023/06/24 11:59:22;;;;;;;3.60;3.17;;;26.60;92.00;;;;;;5051487;28;20467;-70
2023/06/24 12:01:56;;;;;;;2.40;2.20;;;26.60;93.10;;;;;;5051109;28;20676;-70
2023/06/24 12:04:29;;;;;;;2.53;2.33;;;26.50;92.40;;;;;;5051120;28;20531;-70
2023/06/24 12:06:55;;;;;;;2.97;2.67;;;26.50;94.40;;;;;;5050116;28;20515;-70
2023/06/24 12:09:22;;;;;;;3.07;2.00;;;26.60;95.30;;;;;;5050613;28;20475;-70
2023/06/24 12:11:49;;;;;;;2.60;2.40;;;26.80;94.50;;;;;;5050759;28;20463;-71
2023/06/24 12:14:16;;;;;;;2.50;2.30;;;27.00;92.40;;;;;;5051298;28;20474;-70
2023/06/24 12:16:44;;;;;;;2.60;2.40;;;27.00;93.80;;;;;;5050277;28;20476;-70
2023/06/24 12:19:11;;;;;;;3.17;2.70;;;26.90;91.80;;;;;;5048285;28;20472;-71
2023/06/24 12:21:38;;;;;;;2.47;2.27;;;26.90;93.60;;;;;;5050838;28;20464;-70
2023/06/24 12:24:06;;;;;;;2.60;2.40;;;27.10;93.40;;;;;;5050526;28;20499;-70
2023/06/24 12:26:33;;;;;;;4.43;2.60;;;27.20;94.60;;;;;;5046822;28;20484;-70
2023/06/24 12:29:00;;;;;;;3.13;2.73;;;27.40;94.50;;;;;;5047433;28;20471;-70
2023/06/24 12:31:26;;;;;;;2.70;2.50;;;27.50;94.00;;;;;;5050609;28;20467;-70
2023/06/24 12:33:54;;;;;;;2.50;2.30;;;27.50;91.20;;;;;;5050700;28;20468;-70
2023/06/24 12:36:22;;;;;;;3.37;3.07;;;27.50;92.80;;;;;;5050060;28;20463;-70
2023/06/24 12:38:49;;;;;;;2.63;2.43;;;27.50;90.20;;;;;;5051033;28;20968;-70
2023/06/24 12:41:15;;;;;;;2.60;2.20;;;27.30;91.80;;;;;;5050622;28;21072;-70
2023/06/24 12:43:42;;;;;;;2.60;2.40;;;27.30;93.80;;;;;;5050541;28;20459;-70
2023/06/24 12:46:09;;;;;;;2.60;2.40;;;27.30;91.00;;;;;;5049947;28;20463;-70
2023/06/24 12:48:36;;;;;;;2.70;2.30;;;27.40;91.10;;;;;;5050739;28;20456;-70
2023/06/24 12:51:04;;;;;;;3.10;2.80;;;27.50;90.20;;;;;;5050665;28;20966;-70
2023/06/24 12:53:31;;;;;;;3.10;2.80;;;27.40;92.90;;;;;;5050298;28;20470;-70
2023/06/24 12:55:57;;;;;;;2.90;2.67;;;27.40;91.90;;;;;;5051902;28;20467;-70
2023/06/24 12:58:25;;;;;;;3.17;2.80;;;27.30;93.40;;;;;;5049900;28;20487;-70